Time;durP1;ratioP1;P1;durP2;ratioP2;P2;SDS_P1;SDS_P2;PMS_P1;PMS_P2;Temp;Humidity;BMP_temperature;BMP_pressure;BME280_temperature;BME280_humidity;BME280_pressure;Samples;Min_cycle;Max_cycle;Signal;HPM_P1;HPM_P2
2022/06/05 00:02:15;;;;;;;6.43;4.13;;;12.40;99.90;;;;;;4982333;28;20046;-78
2022/06/05 00:04:55;;;;;;;3.97;3.63;;;12.40;99.90;;;;;;4983959;28;20042;-78
2022/06/05 00:07:45;;;;;;;9.50;4.32;;;12.40;99.90;;;;;;4983993;28;20531;-78
2022/06/05 00:10:24;;;;;;;4.57;3.45;;;12.40;99.90;;;;;;4983514;28;20050;-78
2022/06/05 00:12:55;;;;;;;7.80;3.58;;;12.30;99.90;;;;;;4983032;28;20141;-78
2022/06/05 00:15:21;;;;;;;8.15;4.40;;;12.40;99.90;;;;;;4983566;28;20081;-78
2022/06/05 00:17:47;;;;;;;3.58;3.28;;;12.40;99.90;;;;;;4983754;28;20096;-78
2022/06/05 00:20:13;;;;;;;6.57;3.65;;;12.30;99.90;;;;;;4982707;28;20108;-78
2022/06/05 00:22:39;;;;;;;3.60;3.25;;;12.40;99.90;;;;;;4983905;28;20420;-78
2022/06/05 00:25:09;;;;;;;4.38;3.42;;;12.40;99.90;;;;;;4982746;28;20040;-79
2022/06/05 00:27:49;;;;;;;6.68;4.80;;;12.40;99.90;;;;;;4982578;28;20665;-78
2022/06/05 00:31:00;;;;;;;4.53;3.50;;;12.40;99.90;;;;;;4983284;28;20696;-79
2022/06/05 00:33:36;;;;;;;6.43;3.63;;;12.40;99.90;;;;;;4942268;29;20051;-79
2022/06/05 00:36:26;;;;;;;5.18;4.68;;;12.30;99.90;;;;;;4981937;28;20578;-78
2022/06/05 00:39:05;;;;;;;6.85;4.38;;;12.30;99.90;;;;;;4983469;28;20046;-79
2022/06/05 00:41:46;;;;;;;6.88;4.75;;;12.40;99.90;;;;;;4981403;28;20508;-79
2022/06/05 00:44:15;;;;;;;12.38;4.60;;;12.40;99.90;;;;;;4981866;28;20460;-78
2022/06/05 00:46:42;;;;;;;4.90;4.00;;;12.40;99.90;;;;;;4978303;28;20047;-78
2022/06/05 00:49:09;;;;;;;4.63;4.20;;;12.40;99.90;;;;;;4974180;28;20493;-79
2022/06/05 00:51:35;;;;;;;7.03;4.65;;;12.40;99.90;;;;;;4983434;28;20042;-79
2022/06/05 00:54:01;;;;;;;6.68;4.38;;;12.40;99.90;;;;;;4983069;28;20084;-78
2022/06/05 00:56:27;;;;;;;7.85;4.13;;;12.40;99.90;;;;;;4982250;28;20034;-78
2022/06/05 00:58:52;;;;;;;8.60;4.93;;;12.40;99.90;;;;;;4983228;28;20045;-78
2022/06/05 01:01:19;;;;;;;6.75;3.97;;;12.40;99.90;;;;;;4981145;28;20512;-78
2022/06/05 01:03:44;;;;;;;5.68;4.10;;;12.40;99.90;;;;;;4982534;28;20560;-78
2022/06/05 01:06:13;;;;;;;7.97;4.43;;;12.40;99.90;;;;;;4982877;28;20152;-78
2022/06/05 01:08:39;;;;;;;7.85;4.97;;;12.50;99.90;;;;;;4981204;28;20058;-79
2022/06/05 01:11:15;;;;;;;8.52;4.78;;;12.40;99.90;;;;;;4981716;28;20129;-79
2022/06/05 01:13:58;;;;;;;11.15;4.32;;;12.40;99.90;;;;;;4993377;23;20053;-78
2022/06/05 01:16:47;;;;;;;8.32;5.15;;;12.40;99.90;;;;;;4979908;28;20508;-78
2022/06/05 01:19:41;;;;;;;5.70;4.45;;;12.50;99.90;;;;;;4981311;28;20038;-79
2022/06/05 01:22:25;;;;;;;5.47;4.53;;;12.40;99.90;;;;;;4982340;28;20113;-78
2022/06/05 01:24:56;;;;;;;11.95;5.85;;;12.40;99.90;;;;;;4982890;28;20050;-78
2022/06/05 01:27:26;;;;;;;4.15;3.65;;;12.40;99.90;;;;;;4981329;28;20136;-78
2022/06/05 01:30:00;;;;;;;4.90;3.92;;;12.40;99.90;;;;;;4982463;28;20054;-79
2022/06/05 01:32:37;;;;;;;6.15;3.90;;;12.40;99.90;;;;;;4965045;28;20520;-78
2022/06/05 01:35:15;;;;;;;5.20;4.70;;;12.40;99.90;;;;;;4977977;28;20487;-79
2022/06/05 01:37:47;;;;;;;5.55;4.35;;;12.40;99.90;;;;;;4982497;28;20070;-78
2022/06/05 01:40:27;;;;;;;6.53;4.82;;;12.40;99.90;;;;;;4982173;28;20050;-78
2022/06/05 01:43:00;;;;;;;7.78;4.75;;;12.40;99.90;;;;;;4981938;28;20129;-79
2022/06/05 01:45:29;;;;;;;;;;;12.40;99.90;;;;;;4982837;28;20046;-79
2022/06/05 01:47:58;;;;;;;4.43;4.03;;;12.40;99.90;;;;;;4982945;28;19976;-79
2022/06/05 01:50:39;;;;;;;5.82;5.10;;;12.30;99.90;;;;;;4980581;28;20050;-79
2022/06/05 01:53:23;;;;;;;6.47;4.35;;;12.40;99.90;;;;;;4981082;28;20105;-79
2022/06/05 01:56:14;;;;;;;8.35;5.55;;;12.40;99.90;;;;;;4981105;28;20039;-79
2022/06/05 01:58:44;;;;;;;15.00;4.80;;;12.40;99.90;;;;;;4959379;28;20057;-79
2022/06/05 02:01:17;;;;;;;8.70;4.95;;;12.40;99.90;;;;;;4980638;28;20050;-79
2022/06/05 02:03:48;;;;;;;7.55;4.97;;;12.40;99.90;;;;;;4981692;28;20039;-78
2022/06/05 02:06:23;;;;;;;10.75;5.47;;;12.40;99.90;;;;;;4981997;28;20511;-79
2022/06/05 02:08:53;;;;;;;5.93;4.57;;;12.40;99.90;;;;;;4982637;28;20053;-79
2022/06/05 02:11:25;;;;;;;11.57;5.50;;;12.40;99.90;;;;;;4983038;28;20057;-78
2022/06/05 02:13:56;;;;;;;6.45;5.50;;;12.40;99.90;;;;;;4985891;28;20105;-78
2022/06/05 02:16:22;;;;;;;6.38;5.20;;;12.40;99.90;;;;;;4985981;28;20047;-79
2022/06/05 02:18:48;;;;;;;7.55;5.07;;;12.40;99.90;;;;;;4986380;28;20042;-79
2022/06/05 02:21:14;;;;;;;10.07;5.32;;;12.30;99.90;;;;;;4986010;28;20050;-78
2022/06/05 02:23:41;;;;;;;6.40;5.22;;;12.40;99.90;;;;;;4985542;28;20480;-78
2022/06/05 02:26:09;;;;;;;8.13;5.45;;;12.40;99.90;;;;;;4984972;28;20046;-78
2022/06/05 02:28:36;;;;;;;6.03;5.30;;;12.40;99.90;;;;;;4986166;28;20038;-79
2022/06/05 02:31:55;;;;;;;4.70;4.30;;;12.40;99.90;;;;;;4984692;28;20038;-79
2022/06/05 02:34:46;;;;;;;7.28;5.03;;;12.40;99.90;;;;;;4963527;28;20046;-79
2022/06/05 02:37:42;;;;;;;10.98;5.30;;;12.40;99.90;;;;;;4964186;28;20054;-78
2022/06/05 02:40:38;;;;;;;8.40;5.70;;;12.40;99.90;;;;;;4983941;28;20126;-79
2022/06/05 02:43:12;;;;;;;13.30;6.60;;;12.40;99.90;;;;;;4983668;28;20049;-79
2022/06/05 02:45:46;;;;;;;5.63;5.13;;;12.40;99.90;;;;;;4985636;28;20096;-80
2022/06/05 02:48:20;;;;;;;11.38;5.47;;;12.40;99.90;;;;;;4984634;28;20038;-79
2022/06/05 02:50:53;;;;;;;7.60;5.28;;;12.40;99.90;;;;;;4986052;28;20078;-80
2022/06/05 02:53:19;;;;;;;6.90;5.22;;;12.40;99.90;;;;;;4966218;28;20042;-80
2022/06/05 02:55:44;;;;;;;6.90;4.82;;;12.40;99.90;;;;;;4981414;28;20096;-79
2022/06/05 02:58:11;;;;;;;4.80;4.20;;;12.40;99.90;;;;;;4984904;28;20100;-79
2022/06/05 03:00:39;;;;;;;7.07;5.70;;;12.40;99.90;;;;;;4985185;28;20121;-79
2022/06/05 03:05:50;;;;;;;8.60;4.65;;;12.40;99.90;;;;;;4985729;28;20116;-80
2022/06/05 03:08:17;;;;;;;7.35;4.85;;;12.40;99.90;;;;;;4983637;28;20050;-80
2022/06/05 03:10:44;;;;;;;6.45;4.22;;;12.40;99.90;;;;;;4984041;28;20503;-79
2022/06/05 03:13:11;;;;;;;12.48;5.75;;;12.40;99.90;;;;;;4983943;28;20121;-79
2022/06/05 03:15:37;;;;;;;8.10;4.68;;;12.50;99.90;;;;;;4985219;28;20477;-79
2022/06/05 03:18:03;;;;;;;8.60;5.45;;;12.40;99.90;;;;;;4985004;28;20046;-80
2022/06/05 03:20:29;;;;;;;5.63;4.57;;;12.40;99.90;;;;;;4985327;28;20049;-80
2022/06/05 03:22:55;;;;;;;7.07;5.05;;;12.40;99.90;;;;;;4984735;28;20578;-79
2022/06/05 03:25:24;;;;;;;7.10;5.85;;;12.50;99.90;;;;;;4984680;28;20125;-79
2022/06/05 03:27:50;;;;;;;6.32;4.72;;;12.50;99.90;;;;;;4984527;28;20042;-79
2022/06/05 03:30:16;;;;;;;10.65;6.35;;;12.50;99.90;;;;;;4983358;28;20101;-80
2022/06/05 03:32:43;;;;;;;9.10;5.40;;;12.50;99.90;;;;;;4984944;28;20699;-79
2022/06/05 03:35:09;;;;;;;11.18;6.55;;;12.50;99.90;;;;;;4982485;28;20034;-80
2022/06/05 03:37:36;;;;;;;7.80;5.68;;;12.50;99.90;;;;;;4984992;28;20057;-80
2022/06/05 03:40:03;;;;;;;9.57;5.75;;;12.50;99.90;;;;;;4984091;28;20039;-80
2022/06/05 03:42:28;;;;;;;6.82;5.75;;;12.50;99.90;;;;;;4983819;28;20034;-80
2022/06/05 03:44:54;;;;;;;7.13;5.18;;;12.50;99.90;;;;;;4982949;28;20034;-80
2022/06/05 03:47:19;;;;;;;12.13;6.15;;;12.50;99.90;;;;;;4974294;28;20096;-79
2022/06/05 03:49:45;;;;;;;7.45;6.18;;;12.60;99.90;;;;;;4980733;28;20508;-80
2022/06/05 03:52:11;;;;;;;8.63;5.40;;;12.60;99.90;;;;;;4983962;28;20120;-80
2022/06/05 03:54:38;;;;;;;6.75;5.68;;;12.60;99.90;;;;;;4984226;28;20035;-80
2022/06/05 03:57:05;;;;;;;7.05;4.78;;;12.60;99.90;;;;;;4983434;28;20165;-80
2022/06/05 03:59:33;;;;;;;10.32;6.32;;;12.60;99.90;;;;;;4983552;28;20133;-80
2022/06/05 04:01:58;;;;;;;7.93;5.45;;;12.60;99.90;;;;;;4984169;28;20180;-80
2022/06/05 04:04:24;;;;;;;7.63;5.75;;;12.60;99.90;;;;;;4983503;28;20490;-80
2022/06/05 04:06:49;;;;;;;9.00;6.15;;;12.70;99.90;;;;;;4983341;28;20050;-79
2022/06/05 04:09:15;;;;;;;11.20;6.13;;;12.70;99.90;;;;;;4983293;28;20050;-80
2022/06/05 04:11:41;;;;;;;6.78;5.95;;;12.70;99.90;;;;;;4983246;28;20053;-80
2022/06/05 04:14:10;;;;;;;9.48;5.80;;;12.70;99.90;;;;;;4983343;28;20134;-80
2022/06/05 04:16:39;;;;;;;11.95;7.55;;;12.70;99.90;;;;;;4983933;28;20060;-80
2022/06/05 04:19:05;;;;;;;10.85;7.57;;;12.70;99.90;;;;;;4983739;28;20496;-79
2022/06/05 04:21:33;;;;;;;17.90;7.18;;;12.80;99.90;;;;;;4982180;28;20049;-79
2022/06/05 04:23:59;;;;;;;18.33;7.78;;;12.80;99.90;;;;;;4983846;28;20049;-80
2022/06/05 04:26:30;;;;;;;12.18;7.65;;;12.80;99.90;;;;;;4981350;28;20046;-80
2022/06/05 04:28:56;;;;;;;8.03;7.17;;;12.80;99.90;;;;;;4982533;28;20084;-80
2022/06/05 04:31:25;;;;;;;11.80;6.53;;;12.90;99.90;;;;;;4983663;28;20074;-80
2022/06/05 04:33:53;;;;;;;11.40;7.05;;;12.90;99.90;;;;;;4983002;28;20101;-80
2022/06/05 04:36:20;;;;;;;10.68;6.32;;;12.90;99.90;;;;;;4982121;28;20101;-80
2022/06/05 04:38:46;;;;;;;6.97;6.05;;;12.90;99.90;;;;;;4983318;28;20049;-80
2022/06/05 04:41:12;;;;;;;11.73;7.22;;;13.00;99.90;;;;;;4982021;28;20046;-80
2022/06/05 04:43:38;;;;;;;7.32;5.45;;;13.00;99.90;;;;;;4983188;28;20084;-79
2022/06/05 04:46:07;;;;;;;7.30;6.10;;;13.00;99.90;;;;;;4982669;28;20117;-80
2022/06/05 04:48:33;;;;;;;16.75;6.28;;;13.00;99.90;;;;;;4966289;28;20093;-79
2022/06/05 04:51:02;;;;;;;9.63;5.53;;;13.10;99.90;;;;;;4982763;28;20364;-80
2022/06/05 04:53:28;;;;;;;9.85;6.20;;;13.10;99.90;;;;;;4971632;28;20074;-80
2022/06/05 04:55:53;;;;;;;8.02;5.32;;;13.10;99.90;;;;;;4980965;28;20084;-80
2022/06/05 04:58:19;;;;;;;10.15;5.50;;;13.10;99.90;;;;;;4982731;28;20377;-80
2022/06/05 05:00:44;;;;;;;12.02;5.72;;;13.20;99.90;;;;;;4982296;28;20174;-80
2022/06/05 05:03:10;;;;;;;9.18;5.32;;;13.20;99.90;;;;;;4982033;28;20121;-80
2022/06/05 05:05:36;;;;;;;12.52;6.45;;;13.20;99.90;;;;;;4982912;28;20467;-80
2022/06/05 05:08:02;;;;;;;14.18;6.43;;;13.20;99.90;;;;;;4981387;28;20447;-79
2022/06/05 05:10:28;;;;;;;8.77;4.85;;;13.30;99.90;;;;;;4981896;28;20086;-80
2022/06/05 05:12:54;;;;;;;6.13;5.13;;;13.30;99.90;;;;;;4983303;28;20497;-80
2022/06/05 05:15:19;;;;;;;7.85;4.97;;;13.30;99.90;;;;;;4982418;28;20061;-80
2022/06/05 05:17:45;;;;;;;10.00;5.93;;;13.40;99.90;;;;;;4982117;28;20050;-80
2022/06/05 05:20:11;;;;;;;10.90;5.18;;;13.50;99.90;;;;;;4982325;28;20053;-80
2022/06/05 05:22:39;;;;;;;8.02;5.20;;;13.50;99.90;;;;;;4982468;28;20049;-80
2022/06/05 05:25:08;;;;;;;9.73;5.10;;;13.60;99.90;;;;;;4982498;28;20046;-80
2022/06/05 05:27:34;;;;;;;7.40;5.28;;;13.60;99.90;;;;;;4982096;28;20040;-80
2022/06/05 05:30:02;;;;;;;14.43;6.40;;;13.70;99.90;;;;;;4981490;28;20065;-80
2022/06/05 05:32:28;;;;;;;7.60;4.93;;;13.70;99.90;;;;;;4982784;28;20038;-80
2022/06/05 05:34:53;;;;;;;8.95;6.32;;;13.70;99.90;;;;;;4982086;28;20046;-80
2022/06/05 05:37:19;;;;;;;7.40;5.38;;;13.80;99.90;;;;;;4982463;28;20404;-80
2022/06/05 05:42:30;;;;;;;9.30;4.13;;;13.80;99.90;;;;;;4981452;28;20050;-80
2022/06/05 05:44:56;;;;;;;7.53;5.00;;;13.90;99.90;;;;;;4980573;28;20034;-80
2022/06/05 05:47:25;;;;;;;8.95;5.20;;;13.90;99.90;;;;;;4971302;28;20555;-80
2022/06/05 05:49:56;;;;;;;5.25;4.72;;;13.90;99.90;;;;;;4965925;28;20559;-80
2022/06/05 05:52:23;;;;;;;6.07;5.50;;;14.00;99.90;;;;;;4982579;28;20042;-80
2022/06/05 05:54:48;;;;;;;8.90;5.13;;;14.00;99.90;;;;;;4979800;28;20046;-80
2022/06/05 05:57:14;;;;;;;5.60;4.88;;;14.00;99.90;;;;;;4980961;28;20035;-80
2022/06/05 05:59:40;;;;;;;12.40;5.47;;;14.10;99.90;;;;;;4981586;28;20042;-80
2022/06/05 06:02:11;;;;;;;10.35;5.50;;;14.10;99.90;;;;;;4982091;28;20038;-80
2022/06/05 06:04:38;;;;;;;7.05;5.32;;;14.10;99.90;;;;;;4982300;28;20132;-80
2022/06/05 06:07:04;;;;;;;6.60;5.50;;;14.20;99.90;;;;;;4981839;28;20049;-79
2022/06/05 06:09:29;;;;;;;6.93;5.20;;;14.20;99.90;;;;;;4982364;28;20038;-80
2022/06/05 06:11:55;;;;;;;17.17;5.72;;;14.20;99.90;;;;;;4980825;28;20640;-80
2022/06/05 06:14:21;;;;;;;16.58;6.72;;;14.30;99.90;;;;;;4982022;28;20062;-80
2022/06/05 06:16:46;;;;;;;6.47;5.35;;;14.30;99.90;;;;;;4980924;28;20046;-80
2022/06/05 06:19:12;;;;;;;8.95;5.85;;;14.40;99.90;;;;;;4981554;28;20042;-80
2022/06/05 06:21:37;;;;;;;8.77;6.57;;;14.40;99.90;;;;;;4982085;28;20038;-80
2022/06/05 06:24:03;;;;;;;9.13;5.97;;;14.50;99.90;;;;;;4981696;28;20043;-80
2022/06/05 06:26:29;;;;;;;7.88;4.50;;;14.50;99.90;;;;;;4981009;28;20042;-80
2022/06/05 06:28:55;;;;;;;7.65;5.47;;;14.50;99.90;;;;;;4982175;28;20141;-80
2022/06/05 06:31:20;;;;;;;5.80;4.80;;;14.60;99.90;;;;;;4981844;28;20078;-80
2022/06/05 06:33:48;;;;;;;7.90;4.90;;;14.60;99.90;;;;;;4981546;28;20042;-80
2022/06/05 06:36:15;;;;;;;13.80;4.75;;;14.60;99.90;;;;;;4981515;28;20038;-80
2022/06/05 06:38:41;;;;;;;8.32;5.18;;;14.70;99.90;;;;;;4981618;28;20046;-80
2022/06/05 06:41:10;;;;;;;8.48;5.13;;;14.70;99.90;;;;;;4981041;28;20052;-80
2022/06/05 06:43:36;;;;;;;6.63;4.82;;;14.80;99.90;;;;;;4982190;28;20121;-80
2022/06/05 06:46:02;;;;;;;8.32;5.28;;;14.80;99.90;;;;;;4981144;28;20043;-80
2022/06/05 06:48:29;;;;;;;6.45;4.93;;;14.80;99.90;;;;;;4978204;28;20077;-80
2022/06/05 06:50:56;;;;;;;9.35;5.15;;;14.90;99.90;;;;;;4981403;28;20069;-80
2022/06/05 06:53:22;;;;;;;8.30;4.97;;;14.90;99.90;;;;;;4981927;28;20042;-80
2022/06/05 06:55:48;;;;;;;7.68;4.93;;;14.90;99.90;;;;;;4980858;28;20030;-80
2022/06/05 06:58:14;;;;;;;9.00;4.70;;;15.00;99.90;;;;;;4984739;28;20103;-80
2022/06/05 07:00:40;;;;;;;8.82;5.20;;;15.00;99.90;;;;;;4984692;28;20046;-80
2022/06/05 07:03:06;;;;;;;5.40;4.78;;;15.10;99.90;;;;;;4984896;28;20042;-80
2022/06/05 07:05:32;;;;;;;6.43;5.28;;;15.10;99.90;;;;;;4984832;28;20053;-81
2022/06/05 07:07:58;;;;;;;6.68;5.25;;;15.20;99.90;;;;;;4985444;28;20045;-80
2022/06/05 07:10:24;;;;;;;7.30;5.45;;;15.20;99.90;;;;;;4983850;28;20481;-80
2022/06/05 07:12:50;;;;;;;8.23;5.30;;;15.30;99.90;;;;;;4984189;28;20412;-80
2022/06/05 07:15:16;;;;;;;6.85;4.63;;;15.30;99.90;;;;;;4982886;28;20058;-80
2022/06/05 07:17:41;;;;;;;5.35;4.75;;;15.30;99.90;;;;;;4983227;28;20113;-80
2022/06/05 07:20:07;;;;;;;6.03;5.00;;;15.40;99.90;;;;;;4984784;28;20180;-80
2022/06/05 07:22:33;;;;;;;5.30;4.78;;;15.40;99.90;;;;;;4985132;28;20481;-80
2022/06/05 07:24:59;;;;;;;5.55;4.53;;;15.50;99.90;;;;;;4984494;28;20093;-80
2022/06/05 07:27:26;;;;;;;7.40;5.15;;;15.60;99.90;;;;;;4984675;28;20715;-81
2022/06/05 07:29:52;;;;;;;6.45;4.32;;;15.60;99.90;;;;;;4984723;28;20053;-80
2022/06/05 07:32:18;;;;;;;5.57;4.47;;;15.60;99.90;;;;;;4984570;28;20289;-80
2022/06/05 07:34:43;;;;;;;10.27;4.85;;;15.70;99.90;;;;;;4983884;28;20591;-80
2022/06/05 07:37:09;;;;;;;7.38;4.30;;;15.80;99.90;;;;;;4984277;28;20045;-80
2022/06/05 07:39:35;;;;;;;6.07;5.28;;;15.80;99.90;;;;;;4985162;28;20125;-80
2022/06/05 07:42:01;;;;;;;5.82;4.65;;;15.90;99.90;;;;;;4983115;28;20181;-80
2022/06/05 07:44:26;;;;;;;7.45;5.38;;;16.00;99.90;;;;;;4984686;28;20046;-80
2022/06/05 07:46:53;;;;;;;6.13;4.93;;;16.00;99.90;;;;;;4984248;28;20039;-80
2022/06/05 07:49:18;;;;;;;7.82;5.20;;;16.10;99.90;;;;;;4983936;28;20173;-80
2022/06/05 07:54:30;;;;;;;6.53;4.72;;;16.20;99.90;;;;;;4984369;28;20053;-80
2022/06/05 07:57:12;;;;;;;5.65;4.55;;;16.30;99.90;;;;;;4983494;28;20050;-80
2022/06/05 07:59:43;;;;;;;11.18;5.03;;;16.30;99.90;;;;;;4982796;28;20053;-81
2022/06/05 08:02:14;;;;;;;6.72;5.10;;;16.40;99.90;;;;;;4984015;28;20122;-80
2022/06/05 08:04:41;;;;;;;7.00;4.95;;;16.50;99.90;;;;;;4982612;28;20061;-85
2022/06/05 08:07:11;;;;;;;7.13;4.30;;;16.50;99.90;;;;;;4983529;28;20058;-86
2022/06/05 08:09:38;;;;;;;6.35;4.40;;;16.60;99.90;;;;;;4983715;28;20038;-86
2022/06/05 08:12:05;;;;;;;8.38;5.35;;;16.70;99.90;;;;;;4982756;28;20039;-87
2022/06/05 08:14:34;;;;;;;5.88;4.55;;;16.70;99.90;;;;;;4983967;28;20109;-86
2022/06/05 08:17:01;;;;;;;4.50;4.05;;;16.80;99.90;;;;;;4984184;28;20100;-87
2022/06/05 08:19:27;;;;;;;5.60;4.53;;;16.80;99.90;;;;;;4981201;28;20034;-87
2022/06/05 08:21:53;;;;;;;6.03;3.63;;;16.90;99.90;;;;;;4967813;28;20138;-87
2022/06/05 08:24:19;;;;;;;4.43;3.88;;;17.00;99.90;;;;;;4977047;28;20405;-86
2022/06/05 08:26:45;;;;;;;6.35;4.18;;;17.00;99.90;;;;;;4983412;28;20388;-86
2022/06/05 08:29:11;;;;;;;4.80;4.35;;;17.00;99.90;;;;;;4983333;28;20053;-86
2022/06/05 08:31:38;;;;;;;7.85;4.55;;;17.10;99.90;;;;;;4977273;28;20053;-86
2022/06/05 08:34:04;;;;;;;10.07;4.15;;;17.20;99.90;;;;;;4975852;28;20129;-86
2022/06/05 08:36:31;;;;;;;8.50;4.85;;;17.20;99.90;;;;;;4965770;28;20042;-86
2022/06/05 08:42:19;;;;;;;6.07;4.35;;;17.30;99.90;;;;;;4977202;28;20780;-86
2022/06/05 08:45:11;;;;;;;4.70;4.00;;;17.30;99.90;;;;;;4962985;28;20064;-86
2022/06/05 08:47:51;;;;;;;5.97;4.00;;;17.40;99.90;;;;;;4982206;28;20042;-86
2022/06/05 08:50:28;;;;;;;5.57;4.10;;;17.40;99.90;;;;;;4981963;28;20058;-86
2022/06/05 08:53:03;;;;;;;4.75;4.30;;;17.50;99.90;;;;;;4975039;28;20043;-87
2022/06/05 08:55:34;;;;;;;4.03;3.63;;;17.50;99.90;;;;;;4970177;28;20062;-88
2022/06/05 08:58:11;;;;;;;5.10;4.60;;;17.60;99.90;;;;;;4981549;28;20046;-88
2022/06/05 09:01:00;;;;;;;5.30;4.38;;;17.70;99.90;;;;;;4973838;28;20051;-86
2022/06/05 09:03:41;;;;;;;5.88;4.85;;;17.70;99.90;;;;;;4974018;28;20122;-84
2022/06/05 09:06:15;;;;;;;5.18;4.63;;;17.80;99.90;;;;;;4971556;28;20038;-84
2022/06/05 09:08:43;;;;;;;4.57;4.18;;;17.90;99.90;;;;;;4975554;28;20084;-83
2022/06/05 09:11:28;;;;;;;10.23;5.05;;;18.00;99.90;;;;;;4970744;28;20129;-85
2022/06/05 09:14:00;;;;;;;4.47;3.85;;;18.00;99.90;;;;;;4998501;28;20082;-85
2022/06/05 09:16:30;;;;;;;6.15;4.40;;;18.10;99.90;;;;;;4978231;28;20050;-83
2022/06/05 09:18:57;;;;;;;9.13;4.32;;;18.20;99.90;;;;;;4981277;28;20073;-83
2022/06/05 09:21:45;;;;;;;3.95;3.65;;;18.20;99.90;;;;;;4975445;28;20465;-84
2022/06/05 09:24:16;;;;;;;11.85;4.15;;;18.30;99.90;;;;;;4981453;28;20057;-85
2022/06/05 09:26:55;;;;;;;5.38;4.43;;;18.30;99.90;;;;;;4975395;28;20776;-83
2022/06/05 09:29:29;;;;;;;5.10;3.40;;;18.40;99.90;;;;;;4978121;28;20124;-83
2022/06/05 09:32:16;;;;;;;5.25;4.00;;;18.40;99.90;;;;;;4963831;28;20051;-83
2022/06/05 09:34:55;;;;;;;4.28;3.35;;;18.50;99.90;;;;;;4969657;28;20042;-81
2022/06/05 09:37:37;;;;;;;4.20;3.80;;;18.50;99.90;;;;;;4970922;28;20050;-82
2022/06/05 09:40:17;;;;;;;3.35;2.92;;;18.70;99.90;;;;;;4972576;28;20696;-81
2022/06/05 09:42:53;;;;;;;9.48;4.65;;;18.70;99.90;;;;;;4972079;28;20047;-83
2022/06/05 09:45:30;;;;;;;4.13;3.83;;;18.80;99.90;;;;;;4962813;28;20501;-80
2022/06/05 09:48:01;;;;;;;6.75;4.75;;;18.90;99.90;;;;;;4973060;28;20043;-81
2022/06/05 09:50:29;;;;;;;4.63;4.22;;;18.90;99.90;;;;;;4975035;28;20034;-83
2022/06/05 09:52:55;;;;;;;5.57;3.88;;;19.00;99.90;;;;;;4972609;28;20047;-82
2022/06/05 09:55:30;;;;;;;4.78;3.63;;;19.00;99.90;;;;;;4971129;28;20046;-82
2022/06/05 09:58:25;;;;;;;3.85;3.45;;;19.10;99.90;;;;;;4977169;28;20116;-82
2022/06/05 10:00:59;;;;;;;6.15;3.75;;;19.10;99.90;;;;;;4972567;28;20053;-80
2022/06/05 10:03:32;;;;;;;3.60;3.17;;;19.10;99.90;;;;;;4961343;28;20039;-81
2022/06/05 10:06:04;;;;;;;6.32;4.13;;;19.20;99.90;;;;;;4973043;28;20058;-81
2022/06/05 10:08:41;;;;;;;4.38;3.97;;;19.20;99.90;;;;;;4979216;28;20038;-80
2022/06/05 10:11:23;;;;;;;5.80;3.60;;;19.20;99.90;;;;;;4957171;28;20035;-81
2022/06/05 10:13:59;;;;;;;6.43;4.07;;;19.20;99.90;;;;;;4960829;28;20118;-81
2022/06/05 10:16:34;;;;;;;4.75;3.72;;;19.30;99.90;;;;;;4965070;28;20039;-89
2022/06/05 10:19:13;;;;;;;5.88;3.88;;;19.30;99.90;;;;;;4970129;28;20524;-90
2022/06/05 10:22:03;;;;;;;5.50;4.32;;;19.30;99.90;;;;;;4967214;28;20049;-89
2022/06/05 10:24:35;;;;;;;6.65;4.32;;;19.30;99.90;;;;;;4978750;28;20101;-87
2022/06/05 10:27:02;;;;;;;6.13;4.53;;;19.40;99.90;;;;;;4969010;28;20442;-83
2022/06/05 10:29:37;;;;;;;6.45;3.60;;;19.40;99.90;;;;;;4968435;28;20277;-90
2022/06/05 10:32:16;;;;;;;4.90;4.45;;;19.40;99.90;;;;;;4973108;28;20047;-84
2022/06/05 10:35:10;;;;;;;6.30;4.28;;;19.40;99.90;;;;;;4984160;28;20037;-84
2022/06/05 10:38:06;;;;;;;6.70;4.03;;;19.40;99.90;;;;;;4984292;28;20053;-84
2022/06/05 10:40:48;;;;;;;4.03;3.33;;;19.40;99.90;;;;;;4965383;28;20039;-85
2022/06/05 10:43:27;;;;;;;;;;;19.40;99.90;;;;;;4967695;28;20046;-84
2022/06/05 10:46:02;;;;;;;3.65;3.35;;;19.40;99.90;;;;;;4975589;28;19922;-84
2022/06/05 10:48:43;;;;;;;5.05;4.20;;;19.50;99.90;;;;;;4981452;28;20038;-83
2022/06/05 10:51:32;;;;;;;6.78;4.35;;;19.50;99.90;;;;;;4978663;28;20050;-84
2022/06/05 10:54:27;;;;;;;3.40;3.03;;;19.60;99.90;;;;;;4980874;28;20058;-84
2022/06/05 10:56:57;;;;;;;3.90;3.60;;;19.60;99.90;;;;;;4966739;28;20553;-84
2022/06/05 10:59:59;;;;;;;5.15;3.75;;;19.60;99.90;;;;;;4971445;28;20039;-85
2022/06/05 11:03:08;;;;;;;4.45;3.35;;;19.70;99.90;;;;;;4975132;28;20122;-84
2022/06/05 11:06:14;;;;;;;9.32;4.10;;;19.70;99.90;;;;;;4983471;28;20089;-82
2022/06/05 11:08:56;;;;;;;6.30;4.90;;;19.80;99.90;;;;;;4964716;28;20074;-86
2022/06/05 11:14:55;;;;;;;5.18;4.50;;;19.90;99.90;;;;;;4976725;28;20479;-89
2022/06/05 11:17:35;;;;;;;5.85;3.13;;;20.00;99.90;;;;;;4946573;28;20197;-83
2022/06/05 11:20:06;;;;;;;3.67;3.40;;;20.10;99.90;;;;;;4966924;28;20049;-80
2022/06/05 11:22:33;;;;;;;5.90;4.05;;;20.10;99.90;;;;;;4983084;28;20102;-87
2022/06/05 11:25:36;;;;;;;3.88;3.42;;;20.10;99.90;;;;;;4984712;28;20042;-87
2022/06/05 11:28:29;;;;;;;3.45;3.15;;;20.20;99.90;;;;;;4928292;29;20047;-87
2022/06/05 11:31:27;;;;;;;4.20;3.85;;;20.20;99.90;;;;;;4972923;28;20125;-84
2022/06/05 11:34:01;;;;;;;3.58;2.92;;;20.30;99.90;;;;;;4973136;28;20137;-81
2022/06/05 11:36:52;;;;;;;6.03;3.53;;;20.30;99.90;;;;;;4983322;28;20089;-84
2022/06/05 11:39:25;;;;;;;5.70;4.47;;;20.30;99.90;;;;;;4975346;28;20108;-83
2022/06/05 11:42:02;;;;;;;4.55;4.15;;;20.30;99.90;;;;;;4983660;28;20050;-82
2022/06/05 11:44:37;;;;;;;4.85;3.28;;;20.40;99.90;;;;;;4983915;28;20042;-85
2022/06/05 11:47:06;;;;;;;3.60;2.83;;;20.40;99.90;;;;;;4977550;28;20050;-85
2022/06/05 11:50:10;;;;;;;4.40;3.83;;;20.40;99.90;;;;;;4983401;28;20328;-87
2022/06/05 11:52:51;;;;;;;4.15;3.85;;;20.50;99.90;;;;;;4984376;28;20061;-86
2022/06/05 11:55:30;;;;;;;4.40;3.78;;;20.50;99.90;;;;;;4983433;28;20038;-86
2022/06/05 11:58:02;;;;;;;4.28;3.53;;;;;;;;;;4985228;28;20061;-82
2022/06/05 12:00:56;;;;;;;3.00;2.75;;;20.50;99.90;;;;;;4983647;28;20057;-85
2022/06/05 12:03:49;;;;;;;2.72;2.53;;;20.50;99.90;;;;;;4982338;28;20042;-82
2022/06/05 12:06:26;;;;;;;5.10;3.72;;;20.60;99.90;;;;;;4945271;28;20070;-81
2022/06/05 12:08:56;;;;;;;4.05;3.55;;;20.60;99.90;;;;;;4973219;28;20042;-82
2022/06/05 12:11:36;;;;;;;4.10;3.22;;;20.60;99.90;;;;;;4983196;28;20420;-82
2022/06/05 12:14:35;;;;;;;4.72;4.28;;;20.70;99.90;;;;;;4981795;28;20512;-84
2022/06/05 12:17:19;;;;;;;6.45;3.28;;;20.70;99.90;;;;;;4982758;28;20050;-81
2022/06/05 12:20:02;;;;;;;4.15;3.15;;;20.70;99.90;;;;;;4983751;28;20078;-81
2022/06/05 12:22:33;;;;;;;4.15;3.75;;;20.70;99.90;;;;;;4984473;28;20441;-79
2022/06/05 12:25:05;;;;;;;5.97;3.55;;;20.80;99.90;;;;;;4981824;28;20053;-84
2022/06/05 12:28:03;;;;;;;3.42;3.13;;;20.70;99.90;;;;;;4982992;28;20088;-82
2022/06/05 12:30:49;;;;;;;3.67;3.25;;;20.80;99.90;;;;;;4974831;28;20058;-85
2022/06/05 12:33:33;;;;;;;3.45;2.83;;;20.70;99.90;;;;;;4965779;28;20042;-83
2022/06/05 12:36:17;;;;;;;2.88;2.67;;;20.70;99.90;;;;;;4981841;28;20050;-82
2022/06/05 12:38:53;;;;;;;5.85;3.50;;;20.70;99.90;;;;;;4983234;28;20129;-82
2022/06/05 12:41:43;;;;;;;5.22;3.80;;;20.70;99.90;;;;;;4974774;28;20508;-82
2022/06/05 12:44:30;;;;;;;3.72;3.38;;;20.70;99.90;;;;;;4976573;28;20035;-83
2022/06/05 12:47:19;;;;;;;5.63;3.55;;;20.70;99.90;;;;;;4974283;28;20049;-82
2022/06/05 12:50:03;;;;;;;8.05;4.07;;;20.80;99.90;;;;;;4976068;28;20457;-82
2022/06/05 12:52:41;;;;;;;4.35;3.95;;;20.80;99.90;;;;;;4978787;28;20092;-81
2022/06/05 12:55:22;;;;;;;5.57;3.50;;;20.80;99.90;;;;;;4980064;28;20085;-82
2022/06/05 12:57:58;;;;;;;3.95;3.53;;;20.80;99.90;;;;;;4982206;28;20061;-82
2022/06/05 13:00:44;;;;;;;4.25;3.35;;;20.80;99.90;;;;;;4978326;28;20649;-82
2022/06/05 13:03:20;;;;;;;3.15;2.92;;;20.80;99.90;;;;;;4969850;28;20061;-82
2022/06/05 13:06:08;;;;;;;11.05;3.15;;;20.80;99.90;;;;;;4969833;28;20054;-82
2022/06/05 13:08:47;;;;;;;4.30;3.90;;;20.90;99.90;;;;;;4982398;28;20405;-82
2022/06/05 13:11:27;;;;;;;4.60;3.47;;;20.90;99.90;;;;;;4979638;28;20050;-81
2022/06/05 13:14:00;;;;;;;3.60;3.03;;;21.00;99.90;;;;;;4982411;28;20042;-81
2022/06/05 13:16:50;;;;;;;3.60;3.03;;;21.00;99.90;;;;;;4981144;28;20058;-81
2022/06/05 13:19:27;;;;;;;3.13;2.90;;;21.10;99.90;;;;;;4981974;28;20412;-81
2022/06/05 13:22:16;;;;;;;3.25;2.65;;;21.10;99.90;;;;;;4973853;28;20034;-82
2022/06/05 13:25:03;;;;;;;3.95;3.38;;;21.20;99.90;;;;;;4973813;28;20050;-81
2022/06/05 13:28:04;;;;;;;2.83;2.58;;;21.20;99.90;;;;;;4969260;28;20043;-82
2022/06/05 13:30:40;;;;;;;4.85;3.55;;;21.20;99.90;;;;;;4934985;28;20051;-81
2022/06/05 13:33:22;;;;;;;3.92;3.53;;;21.20;99.90;;;;;;4967717;28;20351;-81